createdAt,value
2022-10-16T00:01:07.446Z,23.73
2022-10-16T00:03:36.186Z,23.73
2022-10-16T00:06:05.060Z,23.72
2022-10-16T00:08:33.882Z,23.73
2022-10-16T00:11:05.239Z,23.73
2022-10-16T00:13:34.241Z,23.72
2022-10-16T00:16:03.099Z,23.72
2022-10-16T00:18:31.850Z,23.72
2022-10-16T00:21:04.637Z,23.73
2022-10-16T00:23:33.273Z,23.72
2022-10-16T00:26:06.401Z,23.71
2022-10-16T00:28:36.594Z,23.71
2022-10-16T00:31:06.486Z,23.71
2022-10-16T00:33:35.065Z,23.71
2022-10-16T00:36:03.818Z,23.71
2022-10-16T00:38:32.305Z,23.71
2022-10-16T00:41:00.941Z,23.71
2022-10-16T00:43:41.307Z,23.71
2022-10-16T00:46:16.772Z,23.71
2022-10-16T00:48:49.550Z,23.71
2022-10-16T00:51:18.643Z,23.71
2022-10-16T00:53:47.101Z,23.70
2022-10-16T00:56:15.632Z,23.71
2022-10-16T00:58:45.517Z,23.71
2022-10-16T01:01:14.300Z,23.70
2022-10-16T01:03:42.951Z,23.70
2022-10-16T01:06:36.429Z,23.69
2022-10-16T01:09:14.295Z,23.69
2022-10-16T01:11:50.188Z,23.70
2022-10-16T01:14:24.723Z,23.69
2022-10-16T01:16:57.515Z,23.70
2022-10-16T01:19:51.941Z,23.69
2022-10-16T01:22:20.898Z,23.69
2022-10-16T01:24:51.558Z,23.69
2022-10-16T01:27:23.043Z,23.69
2022-10-16T01:29:54.957Z,23.69
2022-10-16T01:32:33.542Z,23.69
2022-10-16T01:35:04.925Z,23.69
2022-10-16T01:37:37.901Z,23.69
2022-10-16T01:40:09.673Z,23.69
2022-10-16T01:42:41.398Z,23.68
2022-10-16T01:45:12.480Z,23.69
2022-10-16T01:47:41.247Z,23.69
2022-10-16T01:50:10.591Z,23.70
2022-10-16T01:52:42.011Z,23.69
2022-10-16T01:55:11.552Z,23.70
2022-10-16T01:57:44.880Z,23.69
2022-10-16T02:00:15.178Z,23.68
2022-10-16T02:02:44.510Z,23.69
2022-10-16T02:05:17.069Z,23.69
2022-10-16T02:07:45.719Z,23.68
2022-10-16T02:10:14.253Z,23.68
2022-10-16T02:12:45.738Z,23.68
2022-10-16T02:15:14.228Z,23.66
2022-10-16T02:17:42.837Z,23.67
2022-10-16T02:20:12.493Z,23.68
2022-10-16T02:22:44.796Z,23.68
2022-10-16T02:25:15.419Z,23.67
2022-10-16T02:27:51.325Z,23.67
2022-10-16T02:30:23.562Z,23.67
2022-10-16T02:32:52.361Z,23.66
2022-10-16T02:35:22.316Z,23.67
2022-10-16T02:37:51.169Z,23.67
2022-10-16T02:40:22.868Z,23.67
2022-10-16T02:42:56.263Z,23.66
2022-10-16T02:45:26.560Z,23.66
2022-10-16T02:47:55.060Z,23.66
2022-10-16T02:50:23.782Z,23.65
2022-10-16T02:52:52.337Z,23.66
2022-10-16T02:55:20.920Z,23.66
2022-10-16T02:57:49.405Z,23.65
2022-10-16T03:00:20.358Z,23.65
2022-10-16T03:02:48.857Z,23.66
2022-10-16T03:05:17.744Z,23.66
2022-10-16T03:07:46.320Z,23.64
2022-10-16T03:10:15.190Z,23.65
2022-10-16T03:12:43.810Z,23.65
2022-10-16T03:15:12.542Z,23.64
2022-10-16T03:17:42.613Z,23.65
2022-10-16T03:20:11.963Z,23.66
2022-10-16T03:22:40.571Z,23.65
2022-10-16T03:25:10.300Z,23.64
2022-10-16T03:27:38.816Z,23.64
2022-10-16T03:30:08.986Z,23.64
2022-10-16T03:32:37.523Z,23.64
2022-10-16T03:35:08.832Z,23.64
2022-10-16T03:37:37.373Z,23.64
2022-10-16T03:40:06.765Z,23.64
2022-10-16T03:42:35.268Z,23.63
2022-10-16T03:45:04.048Z,23.63
2022-10-16T03:47:34.186Z,23.63
2022-10-16T03:50:02.718Z,23.63
2022-10-16T03:52:34.000Z,23.63
2022-10-16T03:55:02.607Z,23.63
2022-10-16T03:57:31.197Z,23.62
2022-10-16T03:59:59.754Z,23.62
2022-10-16T04:02:28.382Z,23.63
2022-10-16T04:04:56.916Z,23.62
2022-10-16T04:07:25.860Z,23.62
2022-10-16T04:09:56.108Z,23.62
2022-10-16T04:12:24.871Z,23.62
2022-10-16T04:14:53.350Z,23.62
2022-10-16T04:17:22.084Z,23.61
2022-10-16T04:19:50.936Z,23.60
2022-10-16T04:22:19.513Z,23.61
2022-10-16T04:24:48.049Z,23.61
2022-10-16T04:27:18.240Z,23.61
2022-10-16T04:29:46.765Z,23.61
2022-10-16T04:32:15.310Z,23.61
2022-10-16T04:34:43.864Z,23.61
2022-10-16T04:37:12.438Z,23.60
2022-10-16T04:39:41.058Z,23.60
2022-10-16T04:42:09.623Z,23.59
2022-10-16T04:44:39.476Z,23.60
2022-10-16T04:47:09.280Z,23.60
2022-10-16T04:49:37.800Z,23.59
2022-10-16T04:52:06.765Z,23.59
2022-10-16T04:54:35.301Z,23.59
2022-10-16T04:57:03.955Z,23.59
2022-10-16T04:59:32.418Z,23.59
2022-10-16T05:02:02.567Z,23.59
2022-10-16T05:04:31.062Z,23.58
2022-10-16T05:06:59.622Z,23.58
2022-10-16T05:09:28.288Z,23.58
2022-10-16T05:11:57.074Z,23.59
2022-10-16T05:14:25.675Z,23.59
2022-10-16T05:16:54.245Z,23.60
2022-10-16T05:19:28.360Z,23.58
2022-10-16T05:21:57.682Z,23.59
2022-10-16T05:24:26.390Z,23.59
2022-10-16T05:26:54.962Z,23.59
2022-10-16T05:29:23.607Z,23.59
2022-10-16T05:31:54.106Z,23.59
2022-10-16T05:34:24.344Z,23.60
2022-10-16T05:36:53.205Z,23.60
2022-10-16T05:39:22.208Z,23.59
2022-10-16T05:41:53.365Z,23.59
2022-10-16T05:44:22.051Z,23.58
2022-10-16T05:46:50.650Z,23.59
2022-10-16T05:49:19.319Z,23.58
2022-10-16T05:51:49.294Z,23.59
2022-10-16T05:54:17.937Z,23.58
2022-10-16T05:56:47.274Z,23.59
2022-10-16T05:59:16.111Z,23.58
2022-10-16T06:01:44.703Z,23.59
2022-10-16T06:04:13.238Z,23.59
2022-10-16T06:06:42.072Z,23.59
2022-10-16T06:09:12.020Z,23.61
2022-10-16T06:11:40.714Z,23.60
2022-10-16T06:14:10.226Z,23.59
2022-10-16T06:16:39.364Z,23.59
2022-10-16T06:19:09.286Z,23.60
2022-10-16T06:21:38.103Z,23.60
2022-10-16T06:24:07.106Z,23.60
2022-10-16T06:26:37.187Z,23.61
2022-10-16T06:29:05.897Z,23.61
2022-10-16T06:31:34.774Z,23.62
2022-10-16T06:34:05.789Z,23.63
2022-10-16T06:36:34.411Z,23.64
2022-10-16T06:39:02.923Z,23.64
2022-10-16T06:41:31.466Z,23.64
2022-10-16T06:44:01.348Z,23.66
2022-10-16T06:46:30.073Z,23.67
2022-10-16T06:48:58.651Z,23.67
2022-10-16T06:51:27.543Z,23.69
2022-10-16T06:54:04.978Z,23.69
2022-10-16T06:56:34.289Z,23.69
2022-10-16T06:59:04.391Z,23.70
2022-10-16T07:01:33.165Z,23.70
2022-10-16T07:04:02.942Z,23.70
2022-10-16T07:06:34.379Z,23.72
2022-10-16T07:09:09.054Z,23.70
2022-10-16T07:11:38.988Z,23.72
2022-10-16T07:14:16.551Z,23.74
2022-10-16T07:16:45.760Z,23.74
2022-10-16T07:19:15.791Z,23.75
2022-10-16T07:21:44.652Z,23.76
2022-10-16T07:24:14.878Z,23.74
2022-10-16T07:26:44.979Z,23.75
2022-10-16T07:29:16.835Z,23.76
2022-10-16T07:31:45.540Z,23.76
2022-10-16T07:34:14.754Z,23.77
2022-10-16T07:36:43.443Z,23.78
2022-10-16T07:39:12.084Z,23.78
2022-10-16T07:41:40.615Z,23.78
2022-10-16T07:44:09.813Z,23.77
2022-10-16T07:46:39.862Z,23.79
2022-10-16T07:49:08.459Z,23.79
2022-10-16T07:51:37.066Z,23.81
2022-10-16T07:54:05.946Z,23.80
2022-10-16T07:56:35.413Z,23.81
2022-10-16T07:59:04.143Z,23.81
2022-10-16T08:01:32.751Z,23.84
2022-10-16T08:04:02.764Z,23.79
2022-10-16T08:06:31.323Z,23.82
2022-10-16T08:09:01.073Z,23.81
2022-10-16T08:11:29.812Z,23.79
2022-10-16T08:13:58.478Z,23.85
2022-10-16T08:16:27.134Z,23.86
2022-10-16T08:18:55.803Z,23.86
2022-10-16T08:21:25.927Z,23.85
2022-10-16T08:23:58.161Z,23.86
2022-10-16T08:26:28.179Z,23.84
2022-10-16T08:28:57.153Z,23.85
2022-10-16T08:31:27.312Z,23.85
2022-10-16T08:33:55.994Z,23.87
2022-10-16T08:36:25.904Z,23.87
2022-10-16T08:38:55.563Z,23.87
2022-10-16T08:41:57.940Z,23.89
2022-10-16T08:45:16.063Z,23.87
2022-10-16T08:47:52.382Z,23.88
2022-10-16T08:50:25.765Z,23.87
2022-10-16T08:52:56.129Z,23.86
2022-10-16T08:55:34.378Z,23.88
2022-10-16T08:58:03.179Z,23.92
2022-10-16T09:00:32.602Z,23.87
2022-10-16T09:03:08.176Z,23.87
2022-10-16T09:06:04.506Z,23.87
2022-10-16T09:08:41.675Z,23.86
2022-10-16T09:11:14.426Z,23.86
2022-10-16T09:13:50.834Z,23.86
2022-10-16T09:16:23.396Z,23.87
2022-10-16T09:18:57.186Z,23.88
2022-10-16T09:21:27.916Z,23.88
2022-10-16T09:23:59.804Z,23.88
2022-10-16T09:26:28.452Z,23.89
2022-10-16T09:28:57.086Z,23.89
2022-10-16T09:31:25.732Z,23.90
2022-10-16T09:33:57.800Z,23.89
2022-10-16T09:36:26.689Z,23.89
2022-10-16T09:39:06.750Z,23.89
2022-10-16T09:41:36.871Z,23.90
2022-10-16T09:44:06.021Z,23.90
2022-10-16T09:46:35.491Z,23.90
2022-10-16T09:49:05.778Z,23.91
2022-10-16T09:51:36.435Z,23.91
2022-10-16T09:54:16.683Z,23.92
2022-10-16T09:56:46.717Z,23.91
2022-10-16T09:59:16.520Z,23.90
2022-10-16T10:01:47.536Z,23.90
2022-10-16T10:04:16.189Z,23.91
2022-10-16T10:06:46.761Z,23.90
2022-10-16T10:09:22.225Z,23.92
2022-10-16T10:11:56.027Z,23.89
2022-10-16T10:14:30.934Z,23.93
2022-10-16T10:17:17.970Z,23.92
2022-10-16T10:19:51.072Z,23.92
2022-10-16T10:22:32.839Z,23.93
2022-10-16T10:25:34.840Z,23.90
2022-10-16T10:28:36.680Z,23.88
2022-10-16T10:31:09.017Z,23.89
2022-10-16T10:33:44.962Z,23.89
2022-10-16T10:36:42.421Z,23.90
2022-10-16T10:39:13.812Z,23.89
2022-10-16T10:42:07.949Z,23.91
2022-10-16T10:45:00.434Z,23.95
2022-10-16T10:47:37.543Z,23.94
2022-10-16T10:50:11.503Z,23.92
2022-10-16T10:52:59.385Z,23.95
2022-10-16T10:55:34.593Z,23.98
2022-10-16T10:58:24.898Z,23.98
2022-10-16T11:00:59.838Z,23.96
2022-10-16T11:03:37.662Z,23.98
2022-10-16T11:06:07.823Z,23.97
2022-10-16T11:08:38.325Z,24.02
2022-10-16T11:11:10.274Z,24.00
2022-10-16T11:13:43.118Z,24.00
2022-10-16T11:16:20.448Z,24.01
2022-10-16T11:18:55.372Z,24.07
2022-10-16T11:21:28.739Z,24.06
2022-10-16T11:24:06.978Z,24.07
2022-10-16T11:26:37.229Z,24.06
2022-10-16T11:29:07.596Z,24.06
2022-10-16T11:31:40.057Z,24.04
2022-10-16T11:34:16.974Z,24.06
2022-10-16T11:36:47.490Z,24.07
2022-10-16T11:39:22.483Z,24.07
2022-10-16T11:41:52.800Z,24.09
2022-10-16T11:44:44.754Z,24.06
2022-10-16T11:50:23.465Z,24.09
2022-10-16T11:52:58.034Z,24.12
2022-10-16T11:55:31.595Z,24.12
2022-10-16T11:58:03.549Z,24.15
2022-10-16T12:00:37.245Z,24.13
2022-10-16T12:03:11.186Z,24.13
2022-10-16T12:06:03.729Z,24.14
2022-10-16T12:08:32.297Z,24.12
2022-10-16T12:11:10.290Z,24.14
2022-10-16T12:13:40.193Z,24.13
2022-10-16T12:16:23.954Z,24.14
2022-10-16T12:19:05.852Z,24.15
2022-10-16T12:21:34.543Z,24.15
2022-10-16T12:24:06.000Z,24.15
2022-10-16T12:26:36.389Z,24.15
2022-10-16T12:29:17.015Z,24.16
2022-10-16T12:31:57.243Z,24.16
2022-10-16T12:34:30.209Z,24.19
2022-10-16T12:36:58.873Z,24.16
2022-10-16T12:39:27.503Z,24.17
2022-10-16T12:42:06.469Z,24.16
2022-10-16T12:44:35.635Z,24.21
2022-10-16T12:47:07.677Z,24.17
2022-10-16T12:49:39.706Z,24.18
2022-10-16T12:52:30.202Z,24.17
2022-10-16T12:55:01.000Z,24.18
2022-10-16T12:57:40.427Z,24.17
2022-10-16T13:00:20.920Z,24.16
2022-10-16T13:03:33.382Z,24.16
2022-10-16T13:06:27.586Z,24.16
2022-10-16T13:09:08.935Z,24.16
2022-10-16T13:11:52.759Z,24.15
2022-10-16T13:14:49.133Z,24.16
2022-10-16T13:17:21.299Z,24.16
2022-10-16T13:19:55.886Z,24.16
2022-10-16T13:22:27.911Z,24.15
2022-10-16T13:25:10.243Z,24.17
2022-10-16T13:27:46.291Z,24.18
2022-10-16T13:30:17.965Z,24.16
2022-10-16T13:32:48.274Z,24.15
2022-10-16T13:35:26.670Z,24.20
2022-10-16T13:38:13.644Z,24.15
2022-10-16T13:40:55.230Z,24.16
2022-10-16T13:43:27.348Z,24.13
2022-10-16T13:46:03.369Z,24.13
2022-10-16T13:48:32.297Z,24.11
2022-10-16T13:51:04.113Z,24.13
2022-10-16T13:53:34.291Z,24.12
2022-10-16T13:56:04.711Z,24.13
2022-10-16T13:58:33.383Z,24.12
2022-10-16T14:01:03.618Z,24.11
2022-10-16T14:03:32.325Z,24.11
2022-10-16T14:06:04.181Z,24.12
2022-10-16T14:08:32.740Z,24.20
2022-10-16T14:11:02.278Z,24.16
2022-10-16T14:13:35.953Z,24.15
2022-10-16T14:16:09.057Z,24.15
2022-10-16T14:18:37.688Z,24.14
2022-10-16T14:21:09.524Z,24.14
2022-10-16T14:23:39.466Z,24.14
2022-10-16T14:26:15.375Z,24.14
2022-10-16T14:28:45.427Z,24.12
2022-10-16T14:31:36.857Z,24.12
2022-10-16T14:34:05.596Z,24.15
2022-10-16T14:36:36.218Z,24.13
2022-10-16T14:39:06.739Z,24.12
2022-10-16T14:41:43.989Z,24.11
2022-10-16T14:44:12.619Z,24.12
2022-10-16T14:46:42.633Z,24.12
2022-10-16T14:49:18.451Z,24.16
2022-10-16T14:51:48.720Z,24.16
2022-10-16T14:54:19.046Z,24.12
2022-10-16T14:56:50.473Z,24.11
2022-10-16T14:59:23.114Z,24.10
2022-10-16T15:01:51.665Z,24.11
2022-10-16T15:04:20.279Z,24.10
2022-10-16T15:06:50.393Z,24.10
2022-10-16T15:09:18.981Z,24.08
2022-10-16T15:11:48.616Z,24.17
2022-10-16T15:14:17.362Z,24.14
2022-10-16T15:16:46.912Z,24.14
2022-10-16T15:19:15.562Z,24.14
2022-10-16T15:21:44.692Z,24.15
2022-10-16T15:24:20.714Z,24.15
2022-10-16T15:26:50.453Z,24.13
2022-10-16T15:29:21.093Z,24.10
2022-10-16T15:31:49.836Z,24.09
2022-10-16T15:34:20.488Z,24.08
2022-10-16T15:36:49.096Z,24.11
2022-10-16T15:39:21.333Z,24.10
2022-10-16T15:41:52.212Z,24.09
2022-10-16T15:44:21.289Z,24.09
2022-10-16T15:46:49.846Z,24.08
2022-10-16T15:49:18.450Z,24.08
2022-10-16T15:51:47.150Z,24.07
2022-10-16T15:54:16.450Z,24.07
2022-10-16T15:56:46.952Z,24.07
2022-10-16T15:59:15.505Z,24.07
2022-10-16T16:01:44.254Z,24.06
2022-10-16T16:04:31.849Z,24.05
2022-10-16T16:07:02.303Z,24.05
2022-10-16T16:09:31.904Z,24.05
2022-10-16T16:12:02.179Z,24.08
2022-10-16T16:14:30.850Z,24.11
2022-10-16T16:16:59.558Z,24.08
2022-10-16T16:19:28.190Z,24.06
2022-10-16T16:21:56.940Z,24.04
2022-10-16T16:24:27.549Z,24.06
2022-10-16T16:26:56.223Z,24.05
2022-10-16T16:29:26.196Z,24.07
2022-10-16T16:31:58.293Z,24.07
2022-10-16T16:34:27.193Z,24.05
2022-10-16T16:36:55.911Z,24.04
2022-10-16T16:39:24.745Z,24.05
2022-10-16T16:41:53.437Z,24.05
2022-10-16T16:44:22.323Z,24.06
2022-10-16T16:46:52.455Z,24.06
2022-10-16T16:49:21.056Z,24.04
2022-10-16T16:51:49.664Z,24.04
2022-10-16T16:54:18.340Z,24.09
2022-10-16T16:56:57.078Z,24.06
2022-10-16T16:59:25.693Z,24.07
2022-10-16T17:01:57.124Z,24.05
2022-10-16T17:04:25.939Z,24.05
2022-10-16T17:06:55.358Z,24.06
2022-10-16T17:09:24.091Z,24.11
2022-10-16T17:11:52.705Z,24.07
2022-10-16T17:14:21.235Z,24.06
2022-10-16T17:16:50.088Z,24.07
2022-10-16T17:19:20.979Z,24.08
2022-10-16T17:21:51.109Z,24.06
2022-10-16T17:24:21.163Z,24.05
2022-10-16T17:26:50.498Z,24.03
2022-10-16T17:29:19.407Z,24.04
2022-10-16T17:31:49.931Z,24.03
2022-10-16T17:34:19.858Z,24.03
2022-10-16T17:36:48.516Z,24.05
2022-10-16T17:39:19.119Z,24.03
2022-10-16T17:41:48.975Z,24.02
2022-10-16T17:44:20.902Z,24.05
2022-10-16T17:46:49.841Z,24.04
2022-10-16T17:49:21.011Z,24.02
2022-10-16T17:51:51.967Z,24.01
2022-10-16T17:54:21.030Z,24.02
2022-10-16T17:56:49.882Z,24.02
2022-10-16T17:59:20.878Z,24.03
2022-10-16T18:01:49.625Z,24.02
2022-10-16T18:04:18.652Z,24.05
2022-10-16T18:06:48.957Z,24.08
2022-10-16T18:09:19.239Z,24.09
2022-10-16T18:11:49.219Z,24.08
2022-10-16T18:14:19.059Z,24.08
2022-10-16T18:16:47.801Z,24.05
2022-10-16T18:19:16.558Z,24.06
2022-10-16T18:21:45.173Z,24.08
2022-10-16T18:24:15.185Z,24.07
2022-10-16T18:26:43.835Z,24.07
2022-10-16T18:29:12.677Z,24.08
2022-10-16T18:31:42.755Z,24.09
2022-10-16T18:34:11.844Z,24.08
2022-10-16T18:36:42.402Z,24.07
2022-10-16T18:39:11.576Z,24.03
2022-10-16T18:41:44.819Z,24.04
2022-10-16T18:44:13.957Z,24.06
2022-10-16T18:46:42.712Z,24.07
2022-10-16T18:49:11.550Z,24.08
2022-10-16T18:51:40.861Z,24.09
2022-10-16T18:54:11.699Z,24.09
2022-10-16T18:56:41.585Z,24.09
2022-10-16T18:59:10.736Z,24.10
2022-10-16T19:01:39.752Z,24.09
2022-10-16T19:04:09.717Z,24.08
2022-10-16T19:06:40.080Z,24.09
2022-10-16T19:09:10.475Z,24.10
2022-10-16T19:11:41.843Z,24.08
2022-10-16T19:14:12.174Z,24.08
2022-10-16T19:16:42.858Z,24.09
2022-10-16T19:19:18.347Z,24.09
2022-10-16T19:21:48.247Z,24.08
2022-10-16T19:24:17.742Z,24.09
2022-10-16T19:26:46.353Z,24.07
2022-10-16T19:29:16.414Z,24.08
2022-10-16T19:31:45.225Z,24.08
2022-10-16T19:34:14.058Z,24.08
2022-10-16T19:36:45.127Z,24.08
2022-10-16T19:39:15.983Z,24.09
2022-10-16T19:41:44.948Z,24.09
2022-10-16T19:44:16.928Z,24.08
2022-10-16T19:46:46.421Z,24.10
2022-10-16T19:49:18.128Z,24.08
2022-10-16T19:51:50.524Z,24.11
2022-10-16T19:54:19.264Z,24.12
2022-10-16T19:56:48.180Z,24.12
2022-10-16T19:59:20.371Z,24.10
2022-10-16T20:01:49.353Z,24.10
2022-10-16T20:04:17.973Z,24.10
2022-10-16T20:06:47.207Z,24.10
2022-10-16T20:09:15.920Z,24.10
2022-10-16T20:11:44.591Z,24.09
2022-10-16T20:14:13.168Z,24.10
2022-10-16T20:16:46.538Z,24.10
2022-10-16T20:19:15.159Z,24.09
2022-10-16T20:21:43.946Z,24.09
2022-10-16T20:24:12.760Z,24.08
2022-10-16T20:26:41.631Z,24.09
2022-10-16T20:29:10.306Z,24.08
2022-10-16T20:31:39.925Z,24.08
2022-10-16T20:34:12.167Z,24.08
2022-10-16T20:36:43.040Z,24.07
2022-10-16T20:39:13.765Z,24.07
2022-10-16T20:41:42.506Z,24.06
2022-10-16T20:44:11.133Z,24.06
2022-10-16T20:46:39.939Z,24.07
2022-10-16T20:49:27.865Z,24.06
2022-10-16T20:51:58.729Z,24.06
2022-10-16T20:54:27.248Z,24.06
2022-10-16T20:56:56.037Z,24.05
2022-10-16T20:59:24.657Z,24.05
2022-10-16T21:01:53.367Z,24.06
2022-10-16T21:04:23.372Z,24.05
2022-10-16T21:06:52.132Z,24.04
2022-10-16T21:09:20.645Z,24.05
2022-10-16T21:11:49.297Z,24.05
2022-10-16T21:14:17.810Z,24.05
2022-10-16T21:16:46.565Z,24.06
2022-10-16T21:19:15.374Z,24.06
2022-10-16T21:21:45.456Z,24.06
2022-10-16T21:24:16.614Z,24.04
2022-10-16T21:26:45.989Z,24.05
2022-10-16T21:29:14.561Z,24.04
2022-10-16T21:31:43.430Z,24.05
2022-10-16T21:34:11.972Z,24.04
2022-10-16T21:36:42.130Z,24.04
2022-10-16T21:39:13.485Z,24.03
2022-10-16T21:41:42.404Z,24.03
2022-10-16T21:44:11.259Z,24.02
2022-10-16T21:46:41.066Z,24.04
2022-10-16T21:49:13.363Z,24.02
2022-10-16T21:51:43.317Z,24.03
2022-10-16T21:54:14.722Z,24.03
2022-10-16T21:56:43.465Z,24.03
2022-10-16T21:59:12.836Z,24.03
2022-10-16T22:01:41.458Z,24.03
2022-10-16T22:04:11.417Z,24.02
2022-10-16T22:06:40.240Z,24.02
2022-10-16T22:09:08.897Z,24.02
2022-10-16T22:11:38.898Z,24.02
2022-10-16T22:14:08.481Z,24.02
2022-10-16T22:16:37.277Z,24.01
2022-10-16T22:19:07.458Z,24.02
2022-10-16T22:21:37.240Z,24.01
2022-10-16T22:24:07.377Z,24.01
2022-10-16T22:26:36.300Z,24.01
2022-10-16T22:29:06.448Z,24.02
2022-10-16T22:31:35.199Z,24.02
2022-10-16T22:34:04.895Z,24.01
2022-10-16T22:36:33.644Z,24.01
2022-10-16T22:39:02.361Z,24.02
2022-10-16T22:41:30.868Z,24.00
2022-10-16T22:43:59.548Z,23.99
2022-10-16T22:46:32.042Z,23.99
2022-10-16T22:49:00.772Z,23.99
2022-10-16T22:51:29.427Z,23.98
2022-10-16T22:53:58.795Z,24.00
2022-10-16T22:56:27.390Z,23.99
2022-10-16T22:58:57.545Z,24.00
2022-10-16T23:01:29.628Z,24.01
2022-10-16T23:03:58.249Z,24.01
2022-10-16T23:06:26.875Z,24.02
2022-10-16T23:08:55.917Z,24.01
2022-10-16T23:11:24.572Z,24.02
2022-10-16T23:13:53.160Z,24.01
2022-10-16T23:16:23.037Z,24.02
2022-10-16T23:18:52.921Z,24.01
2022-10-16T23:21:22.996Z,24.01
2022-10-16T23:23:51.811Z,24.01
2022-10-16T23:26:22.967Z,24.01
2022-10-16T23:28:51.662Z,24.01
2022-10-16T23:31:20.594Z,24.01
2022-10-16T23:33:49.164Z,24.00
2022-10-16T23:36:20.170Z,24.01
2022-10-16T23:38:48.800Z,24.02
2022-10-16T23:41:17.632Z,24.02
2022-10-16T23:43:46.389Z,24.01
2022-10-16T23:46:15.527Z,24.00
2022-10-16T23:48:44.452Z,24.00
2022-10-16T23:51:13.059Z,23.99
2022-10-16T23:53:43.383Z,23.99
2022-10-16T23:56:12.005Z,23.99
2022-10-16T23:58:41.076Z,23.99
